createdAt,value
2023-02-11T00:02:10.705Z,101886.63
2023-02-11T00:04:37.589Z,101889.06
2023-02-11T00:07:04.331Z,101888.59
2023-02-11T00:09:32.434Z,101889.63
2023-02-11T00:11:59.262Z,101892.31
2023-02-11T00:14:26.644Z,101887.38
2023-02-11T00:16:53.696Z,101898.94
2023-02-11T00:19:20.465Z,101886.22
2023-02-11T00:21:47.498Z,101890.88
2023-02-11T00:24:14.490Z,101891.75
2023-02-11T00:26:42.701Z,101893.06
2023-02-11T00:29:10.188Z,101898.75
2023-02-11T00:36:31.612Z,101900.00
2023-02-11T00:38:59.891Z,101902.84
2023-02-11T00:41:28.361Z,101896.09
2023-02-11T00:43:57.025Z,101890.69
2023-02-11T00:46:24.735Z,101893.44
2023-02-11T00:48:51.953Z,101879.03
2023-02-11T00:51:21.494Z,101875.38
2023-02-11T00:53:48.590Z,101870.94
2023-02-11T00:56:15.419Z,101867.97
2023-02-11T00:58:42.257Z,101853.47
2023-02-11T01:01:13.130Z,101867.69
2023-02-11T01:03:40.559Z,101858.69
2023-02-11T01:06:10.240Z,101863.03
2023-02-11T01:08:38.832Z,101860.47
2023-02-11T01:11:12.514Z,101866.97
2023-02-11T01:13:39.507Z,101857.53
2023-02-11T01:16:08.731Z,101847.94
2023-02-11T01:18:38.005Z,101852.00
2023-02-11T01:21:05.978Z,101858.53
2023-02-11T01:23:32.905Z,101853.59
2023-02-11T01:25:59.910Z,101857.53
2023-02-11T01:28:31.128Z,101854.97
2023-02-11T01:31:02.206Z,101861.00
2023-02-11T01:33:29.794Z,101864.72
2023-02-11T01:36:01.234Z,101861.56
2023-02-11T01:38:28.554Z,101858.78
2023-02-11T01:40:58.896Z,101863.53
2023-02-11T01:43:28.248Z,101861.56
2023-02-11T01:46:12.426Z,101864.47
2023-02-11T01:48:43.971Z,101855.38
2023-02-11T01:51:18.472Z,101849.88
2023-02-11T01:53:48.406Z,101839.91
2023-02-11T01:56:18.677Z,101832.41
2023-02-11T01:58:53.198Z,101846.56
2023-02-11T02:01:27.238Z,101858.97
2023-02-11T02:04:01.823Z,101853.47
2023-02-11T02:06:38.302Z,101843.34
2023-02-11T02:09:11.313Z,101838.59
2023-02-11T02:11:38.493Z,101833.53
2023-02-11T02:14:05.388Z,101835.34
2023-02-11T02:16:36.375Z,101824.78
2023-02-11T02:19:42.256Z,101815.38
2023-02-11T02:22:52.931Z,101813.22
2023-02-11T02:25:52.451Z,101798.06
2023-02-11T02:28:49.666Z,101795.50
2023-02-11T02:31:42.236Z,101791.06
2023-02-11T02:34:23.541Z,101787.84
2023-02-11T02:37:04.507Z,101778.16
2023-02-11T02:39:36.427Z,101776.16
2023-02-11T02:42:05.250Z,101775.47
2023-02-11T02:44:33.534Z,101778.28
2023-02-11T02:47:00.358Z,101775.03
2023-02-11T02:49:28.700Z,101770.09
2023-02-11T02:52:16.091Z,101759.34
2023-02-11T02:55:12.030Z,101755.69
2023-02-11T02:57:58.477Z,101748.75
2023-02-11T03:00:37.716Z,101754.47
2023-02-11T03:03:24.399Z,101753.69
2023-02-11T03:06:04.142Z,101746.69
2023-02-11T03:08:39.035Z,101747.81
2023-02-11T03:11:10.929Z,101754.56
2023-02-11T03:13:41.047Z,101752.19
2023-02-11T03:16:14.734Z,101757.00
2023-02-11T03:18:49.261Z,101755.22
2023-02-11T03:21:20.689Z,101744.41
2023-02-11T03:23:53.670Z,101751.41
2023-02-11T03:26:30.243Z,101742.38
2023-02-11T03:29:06.971Z,101747.38
2023-02-11T03:31:42.804Z,101753.22
2023-02-11T03:34:18.764Z,101757.72
2023-02-11T03:36:56.647Z,101766.25
2023-02-11T03:39:33.209Z,101758.97
2023-02-11T03:42:03.954Z,101760.38
2023-02-11T03:44:39.407Z,101768.72
2023-02-11T03:47:13.072Z,101769.88
2023-02-11T03:49:43.543Z,101768.88
2023-02-11T03:52:15.132Z,101768.28
2023-02-11T03:54:49.012Z,101778.25
2023-02-11T03:57:15.895Z,101780.03
2023-02-11T03:59:54.802Z,101776.25
2023-02-11T04:02:25.715Z,101778.16
2023-02-11T04:04:52.813Z,101769.97
2023-02-11T04:07:23.344Z,101765.63
2023-02-11T04:09:50.235Z,101750.41
2023-02-11T04:12:17.608Z,101758.09
2023-02-11T04:14:44.657Z,101764.25
2023-02-11T04:17:12.028Z,101767.75
2023-02-11T04:19:39.262Z,101756.63
2023-02-11T04:22:06.381Z,101767.22
2023-02-11T04:24:35.003Z,101764.94
2023-02-11T04:27:02.561Z,101769.16
2023-02-11T04:29:29.395Z,101761.72
2023-02-11T04:31:56.236Z,101767.31
2023-02-11T04:34:23.753Z,101765.22
2023-02-11T04:36:50.956Z,101758.38
2023-02-11T04:39:17.891Z,101762.28
2023-02-11T04:41:46.480Z,101773.84
2023-02-11T04:44:13.502Z,101766.25
2023-02-11T04:46:40.741Z,101762.56
2023-02-11T04:49:07.763Z,101751.00
2023-02-11T04:51:34.500Z,101749.28
2023-02-11T04:54:01.301Z,101736.19
2023-02-11T04:56:28.082Z,101740.16
2023-02-11T04:58:56.430Z,101738.97
2023-02-11T05:01:23.390Z,101717.69
2023-02-11T05:03:50.366Z,101718.63
2023-02-11T05:06:18.082Z,101716.44
2023-02-11T05:08:45.273Z,101715.56
2023-02-11T05:11:17.986Z,101705.00
2023-02-11T05:13:45.257Z,101702.81
2023-02-11T05:16:15.217Z,101703.50
2023-02-11T05:18:44.178Z,101691.84
2023-02-11T05:21:15.267Z,101693.50
2023-02-11T05:23:42.394Z,101709.97
2023-02-11T05:26:11.073Z,101707.00
2023-02-11T05:28:39.275Z,101706.78
2023-02-11T05:31:07.247Z,101716.72
2023-02-11T05:33:35.670Z,101717.16
2023-02-11T05:36:06.392Z,101727.19
2023-02-11T05:38:34.113Z,101735.88
2023-02-11T05:41:02.589Z,101737.31
2023-02-11T05:43:29.853Z,101745.91
2023-02-11T05:45:56.887Z,101749.31
2023-02-11T05:48:23.657Z,101760.28
2023-02-11T05:50:52.501Z,101750.94
2023-02-11T05:53:19.290Z,101731.16
2023-02-11T05:55:46.126Z,101736.78
2023-02-11T05:58:13.044Z,101746.84
2023-02-11T06:00:40.117Z,101735.94
2023-02-11T06:03:07.043Z,101721.06
2023-02-11T06:05:33.966Z,101721.72
2023-02-11T06:08:02.186Z,101726.94
2023-02-11T06:10:29.007Z,101712.22
2023-02-11T06:12:55.935Z,101718.31
2023-02-11T06:15:22.738Z,101714.78
2023-02-11T06:17:49.634Z,101732.88
2023-02-11T06:20:16.721Z,101716.00
2023-02-11T06:22:43.629Z,101713.75
2023-02-11T06:25:12.308Z,101708.03
2023-02-11T06:27:39.626Z,101704.59
2023-02-11T06:30:09.118Z,101715.03
2023-02-11T06:32:43.955Z,101714.47
2023-02-11T06:35:12.632Z,101719.38
2023-02-11T06:37:39.732Z,101713.75
2023-02-11T06:40:07.662Z,101715.50
2023-02-11T06:42:35.810Z,101719.28
2023-02-11T06:45:03.661Z,101721.84
2023-02-11T06:47:31.684Z,101724.41
2023-02-11T06:49:58.438Z,101711.66
2023-02-11T06:52:25.239Z,101724.44
2023-02-11T06:54:52.620Z,101714.41
2023-02-11T06:57:19.634Z,101710.59
2023-02-11T06:59:48.217Z,101729.34
2023-02-11T07:02:24.913Z,101725.00
2023-02-11T07:05:16.772Z,101725.22
2023-02-11T07:08:37.642Z,101725.50
2023-02-11T07:11:10.694Z,101727.91
2023-02-11T07:13:37.719Z,101734.84
2023-02-11T07:16:10.058Z,101752.00
2023-02-11T07:18:37.590Z,101749.78
2023-02-11T07:21:05.664Z,101740.00
2023-02-11T07:28:03.074Z,101729.41
2023-02-11T07:30:33.002Z,101725.56
2023-02-11T07:33:01.157Z,101730.06
2023-02-11T07:36:03.791Z,101716.63
2023-02-11T07:38:32.091Z,101715.78
2023-02-11T07:41:00.456Z,101703.50
2023-02-11T07:43:27.452Z,101703.50
2023-02-11T07:45:54.785Z,101709.69
2023-02-11T07:48:22.913Z,101704.22
2023-02-11T07:50:50.219Z,101702.81
2023-02-11T07:53:17.368Z,101697.59
2023-02-11T07:55:44.396Z,101700.56
2023-02-11T07:58:11.431Z,101712.47
2023-02-11T08:00:38.251Z,101727.28
2023-02-11T08:03:05.271Z,101725.00
2023-02-11T08:05:33.411Z,101722.88
2023-02-11T08:08:00.594Z,101726.25
2023-02-11T08:10:27.471Z,101728.03
2023-02-11T08:12:56.965Z,101720.06
2023-02-11T08:15:23.789Z,101704.53
2023-02-11T08:17:50.684Z,101712.28
2023-02-11T08:20:17.656Z,101715.22
2023-02-11T08:22:45.796Z,101703.75
2023-02-11T08:25:12.591Z,101706.06
2023-02-11T08:27:39.469Z,101700.75
2023-02-11T08:30:07.722Z,101698.56
2023-02-11T08:32:35.502Z,101698.53
2023-02-11T08:35:02.294Z,101707.66
2023-02-11T08:37:32.004Z,101708.78
2023-02-11T08:40:01.362Z,101716.84
2023-02-11T08:42:28.122Z,101717.31
2023-02-11T08:44:55.256Z,101704.59
2023-02-11T08:47:22.030Z,101707.16
2023-02-11T08:49:48.850Z,101705.78
2023-02-11T08:52:15.642Z,101709.47
2023-02-11T08:54:42.442Z,101701.13
2023-02-11T08:57:10.890Z,101712.31
2023-02-11T08:59:37.892Z,101704.97
2023-02-11T09:02:04.892Z,101697.28
2023-02-11T09:04:31.744Z,101711.22
2023-02-11T09:06:58.596Z,101707.75
2023-02-11T09:09:25.441Z,101712.69
2023-02-11T09:11:52.526Z,101702.75
2023-02-11T09:14:23.381Z,101704.84
2023-02-11T09:16:51.408Z,101708.03
2023-02-11T09:19:19.060Z,101705.63
2023-02-11T09:21:46.824Z,101709.34
2023-02-11T09:24:14.979Z,101704.94
2023-02-11T09:26:42.977Z,101694.78
2023-02-11T09:29:10.171Z,101692.09
2023-02-11T09:31:38.650Z,101689.91
2023-02-11T09:34:06.635Z,101695.75
2023-02-11T09:36:36.633Z,101706.47
2023-02-11T09:39:05.956Z,101707.00
2023-02-11T09:41:47.712Z,101709.91
2023-02-11T09:44:21.389Z,101708.25
2023-02-11T09:46:58.068Z,101702.38
2023-02-11T09:49:33.879Z,101709.16
2023-02-11T09:52:08.030Z,101704.09
2023-02-11T09:54:46.445Z,101720.16
2023-02-11T09:57:27.727Z,101718.84
2023-02-11T09:59:56.782Z,101713.66
2023-02-11T10:02:47.136Z,101704.81
2023-02-11T10:05:36.962Z,101713.22
2023-02-11T10:08:17.095Z,101717.78
2023-02-11T10:10:52.783Z,101694.81
2023-02-11T10:13:42.350Z,101705.38
2023-02-11T10:16:37.429Z,101711.97
2023-02-11T10:19:31.154Z,101703.16
2023-02-11T10:22:12.066Z,101697.69
2023-02-11T10:24:42.514Z,101690.31
2023-02-11T10:27:20.013Z,101685.91
2023-02-11T10:30:06.763Z,101678.66
2023-02-11T10:32:49.903Z,101690.38
2023-02-11T10:35:24.733Z,101685.91
2023-02-11T10:37:54.914Z,101685.41
2023-02-11T10:40:25.758Z,101684.38
2023-02-11T10:42:56.042Z,101686.13
2023-02-11T10:45:32.197Z,101685.47
2023-02-11T10:48:00.247Z,101674.41
2023-02-11T10:50:33.984Z,101675.28
2023-02-11T10:53:17.122Z,101672.59
2023-02-11T10:55:52.587Z,101673.97
2023-02-11T10:58:30.105Z,101677.09
2023-02-11T11:01:00.212Z,101673.53
2023-02-11T11:03:34.338Z,101677.38
2023-02-11T11:06:08.044Z,101679.41
2023-02-11T11:08:42.464Z,101688.16
2023-02-11T11:11:12.466Z,101669.38
2023-02-11T11:13:42.117Z,101672.72
2023-02-11T11:16:23.392Z,101667.88
2023-02-11T11:18:53.040Z,101665.66
2023-02-11T11:21:24.897Z,101667.84
2023-02-11T11:23:56.982Z,101663.66
2023-02-11T11:26:26.691Z,101669.91
2023-02-11T11:29:00.520Z,101673.16
2023-02-11T11:31:33.637Z,101662.25
2023-02-11T11:34:06.551Z,101670.69
2023-02-11T11:36:39.760Z,101657.78
2023-02-11T11:39:22.819Z,101666.72
2023-02-11T11:41:55.276Z,101665.78
2023-02-11T11:44:30.938Z,101666.19
2023-02-11T11:47:32.627Z,101660.94
2023-02-11T11:50:28.677Z,101667.88
2023-02-11T11:53:04.463Z,101671.91
2023-02-11T11:55:41.046Z,101676.63
2023-02-11T11:58:16.446Z,101669.53
2023-02-11T12:00:58.073Z,101668.59
2023-02-11T12:04:08.433Z,101670.56
2023-02-11T12:06:47.574Z,101673.91
2023-02-11T12:09:34.597Z,101670.84
2023-02-11T12:12:36.465Z,101674.41
2023-02-11T12:15:32.718Z,101666.34
2023-02-11T12:18:49.229Z,101676.75
2023-02-11T12:21:39.668Z,101674.31
2023-02-11T12:24:31.574Z,101666.66
2023-02-11T12:27:09.135Z,101674.78
2023-02-11T12:29:53.587Z,101668.31
2023-02-11T12:32:33.459Z,101675.09
2023-02-11T12:35:30.889Z,101673.19
2023-02-11T12:38:39.088Z,101657.03
2023-02-11T12:41:33.264Z,101665.38
2023-02-11T12:44:00.567Z,101663.81
2023-02-11T12:46:43.078Z,101648.56
2023-02-11T12:49:44.436Z,101651.94
2023-02-11T12:52:31.960Z,101639.53
2023-02-11T12:55:04.104Z,101643.28
2023-02-11T12:57:37.829Z,101629.84
2023-02-11T13:00:13.733Z,101625.75
2023-02-11T13:02:50.056Z,101625.81
2023-02-11T13:05:28.577Z,101623.28
2023-02-11T13:08:04.447Z,101623.78
2023-02-11T13:10:37.933Z,101615.97
2023-02-11T13:13:19.530Z,101620.66
2023-02-11T13:15:55.954Z,101612.72
2023-02-11T13:18:57.473Z,101618.22
2023-02-11T13:25:55.903Z,101602.00
2023-02-11T13:29:26.244Z,101600.78
2023-02-11T13:32:07.936Z,101598.31
2023-02-11T13:34:56.269Z,101603.13
2023-02-11T13:37:26.401Z,101602.75
2023-02-11T13:40:28.076Z,101607.84
2023-02-11T13:42:59.121Z,101599.69
2023-02-11T13:45:36.006Z,101595.13
2023-02-11T13:48:07.961Z,101603.69
2023-02-11T13:50:45.287Z,101604.03
2023-02-11T13:53:16.041Z,101611.66
2023-02-11T13:55:47.306Z,101606.56
2023-02-11T13:58:34.398Z,101611.47
2023-02-11T14:01:03.585Z,101615.53
2023-02-11T14:03:37.443Z,101614.84
2023-02-11T14:06:15.457Z,101609.78
2023-02-11T14:09:30.048Z,101609.78
2023-02-11T14:12:42.284Z,101613.66
2023-02-11T14:15:38.827Z,101616.22
2023-02-11T14:18:59.704Z,101620.41
2023-02-11T14:21:38.053Z,101613.13
2023-02-11T14:24:47.896Z,101624.28
2023-02-11T14:27:37.208Z,101617.03
2023-02-11T14:30:35.221Z,101630.03
2023-02-11T14:33:23.541Z,101614.47
2023-02-11T14:36:08.375Z,101609.41
2023-02-11T14:38:58.158Z,101610.06
2023-02-11T14:41:29.807Z,101618.53
2023-02-11T14:44:01.724Z,101622.41
2023-02-11T14:46:29.315Z,101624.28
2023-02-11T14:49:01.688Z,101620.06
2023-02-11T14:51:36.371Z,101625.09
2023-02-11T14:54:13.868Z,101629.97
2023-02-11T14:56:41.782Z,101634.75
2023-02-11T14:59:19.548Z,101630.19
2023-02-11T15:01:51.468Z,101638.34
2023-02-11T15:04:26.397Z,101644.03
2023-02-11T15:06:58.317Z,101639.34
2023-02-11T15:09:33.349Z,101641.03
2023-02-11T15:12:00.730Z,101646.56
2023-02-11T15:14:31.727Z,101644.91
2023-02-11T15:17:02.274Z,101644.59
2023-02-11T15:19:34.746Z,101645.56
2023-02-11T15:22:07.014Z,101654.03
2023-02-11T15:24:35.674Z,101657.00
2023-02-11T15:27:10.636Z,101657.00
2023-02-11T15:29:40.164Z,101652.94
2023-02-11T15:32:15.018Z,101655.88
2023-02-11T15:34:42.858Z,101655.38
2023-02-11T15:37:17.422Z,101661.72
2023-02-11T15:39:46.091Z,101667.84
2023-02-11T15:42:19.272Z,101663.63
2023-02-11T15:44:52.244Z,101666.31
2023-02-11T15:47:23.639Z,101669.41
2023-02-11T15:49:50.807Z,101668.91
2023-02-11T15:52:26.588Z,101675.78
2023-02-11T15:54:59.785Z,101668.47
2023-02-11T15:57:27.542Z,101674.88
2023-02-11T15:59:56.505Z,101668.41
2023-02-11T16:02:33.184Z,101661.66
2023-02-11T16:05:09.315Z,101675.22
2023-02-11T16:07:45.435Z,101670.78
2023-02-11T16:10:20.925Z,101673.19
2023-02-11T16:12:54.169Z,101676.72
2023-02-11T16:15:44.279Z,101676.03
2023-02-11T16:18:38.371Z,101677.19
2023-02-11T16:21:14.198Z,101678.38
2023-02-11T16:23:49.158Z,101682.91
2023-02-11T16:26:28.390Z,101679.50
2023-02-11T16:29:05.721Z,101676.97
2023-02-11T16:31:36.065Z,101680.81
2023-02-11T16:34:05.266Z,101674.22
2023-02-11T16:36:32.102Z,101676.03
2023-02-11T16:39:00.245Z,101680.59
2023-02-11T16:41:27.062Z,101682.28
2023-02-11T16:43:57.418Z,101679.03
2023-02-11T16:46:25.049Z,101682.44
2023-02-11T16:48:51.924Z,101682.44
2023-02-11T16:51:18.939Z,101681.75
2023-02-11T16:53:45.814Z,101683.59
2023-02-11T16:56:17.663Z,101688.13
2023-02-11T16:58:45.210Z,101681.88
2023-02-11T17:01:14.033Z,101689.16
2023-02-11T17:03:41.447Z,101681.88
2023-02-11T17:06:11.283Z,101682.19
2023-02-11T17:08:38.228Z,101684.88
2023-02-11T17:11:06.102Z,101686.22
2023-02-11T17:13:34.408Z,101694.19
2023-02-11T17:16:01.320Z,101689.16
2023-02-11T17:18:28.349Z,101697.56
2023-02-11T17:20:55.140Z,101695.19
2023-02-11T17:23:21.956Z,101692.78
2023-02-11T17:25:55.869Z,101698.03
2023-02-11T17:28:22.783Z,101703.53
2023-02-11T17:30:50.988Z,101707.59
2023-02-11T17:33:19.087Z,101712.69
2023-02-11T17:35:46.570Z,101711.16
2023-02-11T17:38:15.028Z,101699.22
2023-02-11T17:40:42.419Z,101703.34
2023-02-11T17:43:09.434Z,101703.78
2023-02-11T17:45:41.732Z,101711.59
2023-02-11T17:48:10.029Z,101719.13
2023-02-11T17:50:37.294Z,101720.06
2023-02-11T17:53:04.332Z,101712.72
2023-02-11T17:55:33.229Z,101709.22
2023-02-11T17:58:00.615Z,101713.59
2023-02-11T18:00:27.697Z,101716.44
2023-02-11T18:02:57.435Z,101725.50
2023-02-11T18:05:25.796Z,101729.66
2023-02-11T18:07:55.007Z,101734.19
2023-02-11T18:10:22.195Z,101734.78
2023-02-11T18:12:49.174Z,101735.50
2023-02-11T18:15:16.062Z,101737.75
2023-02-11T18:17:42.897Z,101739.56
2023-02-11T18:20:10.788Z,101738.56
2023-02-11T18:22:40.729Z,101740.13
2023-02-11T18:25:08.717Z,101730.47
2023-02-11T18:27:35.593Z,101739.69
2023-02-11T18:30:03.692Z,101745.75
2023-02-11T18:32:31.373Z,101752.28
2023-02-11T18:34:58.374Z,101745.06
2023-02-11T18:37:25.722Z,101747.03
2023-02-11T18:39:54.077Z,101738.84
2023-02-11T18:42:20.956Z,101743.84
2023-02-11T18:44:48.692Z,101748.22
2023-02-11T18:47:15.503Z,101739.16
2023-02-11T18:49:42.266Z,101742.28
2023-02-11T18:52:09.802Z,101748.34
2023-02-11T18:54:37.469Z,101741.41
2023-02-11T18:57:05.617Z,101742.41
2023-02-11T18:59:34.446Z,101749.47
2023-02-11T19:02:01.674Z,101757.69
2023-02-11T19:04:28.636Z,101747.22
2023-02-11T19:06:55.434Z,101740.56
2023-02-11T19:09:22.512Z,101737.03
2023-02-11T19:11:50.025Z,101737.16
2023-02-11T19:14:23.345Z,101740.28
2023-02-11T19:16:53.798Z,101739.72
2023-02-11T19:19:22.204Z,101742.81
2023-02-11T19:21:49.718Z,101743.66
2023-02-11T19:24:18.736Z,101744.81
2023-02-11T19:26:47.144Z,101739.16
2023-02-11T19:29:14.938Z,101734.75
2023-02-11T19:31:44.417Z,101737.03
2023-02-11T19:34:14.688Z,101735.63
2023-02-11T19:36:42.035Z,101737.59
2023-02-11T19:39:09.488Z,101738.88
2023-02-11T19:41:36.516Z,101745.34
2023-02-11T19:44:04.970Z,101737.84
2023-02-11T19:46:36.483Z,101744.66
2023-02-11T19:49:05.511Z,101751.31
2023-02-11T19:51:33.124Z,101744.78
2023-02-11T19:54:01.869Z,101759.22
2023-02-11T19:56:29.011Z,101764.44
2023-02-11T19:58:56.421Z,101760.63
2023-02-11T20:01:25.824Z,101760.06
2023-02-11T20:03:55.049Z,101762.63
2023-02-11T20:06:25.799Z,101756.28
2023-02-11T20:08:58.797Z,101765.88
2023-02-11T20:11:28.002Z,101757.53
2023-02-11T20:13:55.686Z,101758.09
2023-02-11T20:16:36.868Z,101756.41
2023-02-11T20:19:12.319Z,101754.00
2023-02-11T20:21:40.608Z,101749.78
2023-02-11T20:24:08.057Z,101755.97
2023-02-11T20:26:35.067Z,101750.59
2023-02-11T20:29:02.787Z,101748.91
2023-02-11T20:31:31.667Z,101752.75
2023-02-11T20:33:59.112Z,101758.41
2023-02-11T20:36:29.494Z,101759.13
2023-02-11T20:38:59.020Z,101772.69
2023-02-11T20:41:28.702Z,101771.38
2023-02-11T20:43:57.949Z,101770.56
2023-02-11T20:46:27.828Z,101768.16
2023-02-11T20:48:57.453Z,101768.44
2023-02-11T20:51:28.637Z,101769.28
2023-02-11T20:53:57.695Z,101776.78
2023-02-11T20:56:27.995Z,101780.47
2023-02-11T20:58:56.720Z,101780.72
2023-02-11T21:01:26.549Z,101775.75
2023-02-11T21:03:57.984Z,101773.50
2023-02-11T21:06:30.843Z,101769.28
2023-02-11T21:08:59.553Z,101774.81
2023-02-11T21:11:26.574Z,101781.44
2023-02-11T21:13:53.789Z,101770.06
2023-02-11T21:16:20.994Z,101771.03
2023-02-11T21:18:48.677Z,101765.53
2023-02-11T21:21:16.294Z,101773.44
2023-02-11T21:23:43.354Z,101777.00
2023-02-11T21:26:12.128Z,101773.03
2023-02-11T21:28:40.942Z,101775.03
2023-02-11T21:31:14.576Z,101779.03
2023-02-11T21:33:41.492Z,101774.16
2023-02-11T21:36:09.914Z,101778.66
2023-02-11T21:38:36.743Z,101787.53
2023-02-11T21:41:05.196Z,101787.09
2023-02-11T21:43:33.784Z,101783.31
2023-02-11T21:46:00.925Z,101787.69
2023-02-11T21:48:27.788Z,101790.84
2023-02-11T21:50:54.756Z,101794.88
2023-02-11T21:53:21.713Z,101803.88
2023-02-11T21:55:48.559Z,101793.72
2023-02-11T21:58:15.464Z,101785.59
2023-02-11T22:00:43.945Z,101795.13
2023-02-11T22:03:12.248Z,101798.38
2023-02-11T22:05:40.452Z,101810.44
2023-02-11T22:08:07.251Z,101806.47
2023-02-11T22:10:34.678Z,101816.53
2023-02-11T22:13:11.551Z,101806.56
2023-02-11T22:15:56.698Z,101807.19
2023-02-11T22:18:23.677Z,101804.25
2023-02-11T22:20:58.309Z,101804.69
2023-02-11T22:23:27.511Z,101812.97
2023-02-11T22:25:54.921Z,101819.34
2023-02-11T22:28:24.986Z,101812.56
2023-02-11T22:30:58.145Z,101814.72
2023-02-11T22:33:28.127Z,101809.88
2023-02-11T22:35:59.237Z,101806.53
2023-02-11T22:38:27.811Z,101799.34
2023-02-11T22:40:55.013Z,101784.34
2023-02-11T22:43:22.124Z,101783.34
2023-02-11T22:45:50.208Z,101793.38
2023-02-11T22:48:21.426Z,101793.91
2023-02-11T22:50:50.174Z,101804.00
2023-02-11T22:53:17.041Z,101808.00
2023-02-11T22:55:45.068Z,101810.44
2023-02-11T22:58:12.046Z,101813.13
2023-02-11T23:00:41.409Z,101813.00
2023-02-11T23:03:14.468Z,101809.63
2023-02-11T23:05:43.756Z,101812.59
2023-02-11T23:08:11.990Z,101805.41
2023-02-11T23:10:40.651Z,101798.06
2023-02-11T23:13:09.062Z,101798.38
2023-02-11T23:15:40.090Z,101808.84
2023-02-11T23:18:08.544Z,101811.50
2023-02-11T23:20:37.042Z,101815.13
2023-02-11T23:23:05.742Z,101809.91
2023-02-11T23:25:33.326Z,101801.03
2023-02-11T23:28:01.166Z,101818.06
2023-02-11T23:30:41.238Z,101815.53
2023-02-11T23:33:08.148Z,101815.72
2023-02-11T23:35:35.426Z,101811.91
2023-02-11T23:38:02.406Z,101809.41
2023-02-11T23:40:30.640Z,101815.53
2023-02-11T23:42:57.457Z,101817.25
2023-02-11T23:45:24.619Z,101822.34
2023-02-11T23:47:51.496Z,101823.06
2023-02-11T23:50:18.876Z,101818.53
2023-02-11T23:52:48.152Z,101836.41
2023-02-11T23:55:17.970Z,101832.22
2023-02-11T23:57:46.860Z,101829.50
